sensor_id;sensor_type;location;lat;lon;timestamp;temperature;humidity
9043;DHT22;4556;49.150;8.808;2023-05-07T00:01:33;13.40;99.90
9043;DHT22;4556;49.150;8.808;2023-05-07T00:04:00;12.60;99.90
9043;DHT22;4556;49.150;8.808;2023-05-07T00:06:29;12.40;99.90
9043;DHT22;4556;49.150;8.808;2023-05-07T00:08:56;12.40;99.90
9043;DHT22;4556;49.150;8.808;2023-05-07T00:11:27;12.30;99.90
9043;DHT22;4556;49.150;8.808;2023-05-07T00:14:08;11.80;99.90
9043;DHT22;4556;49.150;8.808;2023-05-07T00:16:35;12.30;99.90
9043;DHT22;4556;49.150;8.808;2023-05-07T00:19:02;12.40;99.90
9043;DHT22;4556;49.150;8.808;2023-05-07T00:21:30;12.30;99.90
9043;DHT22;4556;49.150;8.808;2023-05-07T00:23:57;12.30;99.90
9043;DHT22;4556;49.150;8.808;2023-05-07T00:26:26;12.40;99.90
9043;DHT22;4556;49.150;8.808;2023-05-07T00:28:53;12.40;99.90
9043;DHT22;4556;49.150;8.808;2023-05-07T00:31:26;12.50;99.90
9043;DHT22;4556;49.150;8.808;2023-05-07T00:33:59;12.50;99.90
9043;DHT22;4556;49.150;8.808;2023-05-07T00:36:38;12.40;99.90
9043;DHT22;4556;49.150;8.808;2023-05-07T00:39:05;13.10;99.90
9043;DHT22;4556;49.150;8.808;2023-05-07T00:41:35;12.60;99.90
9043;DHT22;4556;49.150;8.808;2023-05-07T00:44:18;12.60;99.90
9043;DHT22;4556;49.150;8.808;2023-05-07T00:46:55;12.70;99.90
9043;DHT22;4556;49.150;8.808;2023-05-07T00:49:32;12.80;99.90
9043;DHT22;4556;49.150;8.808;2023-05-07T00:52:04;12.90;99.90
9043;DHT22;4556;49.150;8.808;2023-05-07T00:54:32;14.50;99.90
9043;DHT22;4556;49.150;8.808;2023-05-07T00:57:09;13.00;99.90
9043;DHT22;4556;49.150;8.808;2023-05-07T00:59:39;12.90;99.90
9043;DHT22;4556;49.150;8.808;2023-05-07T01:02:06;14.10;99.90
9043;DHT22;4556;49.150;8.808;2023-05-07T01:04:47;12.80;99.90
9043;DHT22;4556;49.150;8.808;2023-05-07T01:07:16;12.70;99.90
9043;DHT22;4556;49.150;8.808;2023-05-07T01:09:43;12.60;99.90
9043;DHT22;4556;49.150;8.808;2023-05-07T01:12:27;12.80;99.90
9043;DHT22;4556;49.150;8.808;2023-05-07T01:14:55;12.60;99.90
9043;DHT22;4556;49.150;8.808;2023-05-07T01:17:23;12.60;99.90
9043;DHT22;4556;49.150;8.808;2023-05-07T01:19:50;12.50;99.90
9043;DHT22;4556;49.150;8.808;2023-05-07T01:22:29;12.60;99.90
9043;DHT22;4556;49.150;8.808;2023-05-07T01:24:57;12.40;99.90
9043;DHT22;4556;49.150;8.808;2023-05-07T01:27:26;12.90;99.90
9043;DHT22;4556;49.150;8.808;2023-05-07T01:30:12;12.30;99.90
9043;DHT22;4556;49.150;8.808;2023-05-07T01:32:47;12.40;99.90
9043;DHT22;4556;49.150;8.808;2023-05-07T01:35:18;12.50;99.90
9043;DHT22;4556;49.150;8.808;2023-05-07T01:37:47;12.40;99.90
9043;DHT22;4556;49.150;8.808;2023-05-07T01:40:14;12.60;99.90
9043;DHT22;4556;49.150;8.808;2023-05-07T01:42:43;12.50;99.90
9043;DHT22;4556;49.150;8.808;2023-05-07T01:45:10;12.50;99.90
9043;DHT22;4556;49.150;8.808;2023-05-07T01:47:38;12.50;99.90
9043;DHT22;4556;49.150;8.808;2023-05-07T01:50:18;12.40;99.90
9043;DHT22;4556;49.150;8.808;2023-05-07T01:53:00;13.40;99.90
9043;DHT22;4556;49.150;8.808;2023-05-07T01:55:37;14.30;99.90
9043;DHT22;4556;49.150;8.808;2023-05-07T01:58:05;12.60;99.90
9043;DHT22;4556;49.150;8.808;2023-05-07T02:00:32;12.60;99.90
9043;DHT22;4556;49.150;8.808;2023-05-07T02:02:59;12.50;99.90
9043;DHT22;4556;49.150;8.808;2023-05-07T02:05:31;12.40;99.90
9043;DHT22;4556;49.150;8.808;2023-05-07T02:08:03;13.80;99.90
9043;DHT22;4556;49.150;8.808;2023-05-07T02:10:37;12.40;99.90
9043;DHT22;4556;49.150;8.808;2023-05-07T02:13:04;12.40;99.90
9043;DHT22;4556;49.150;8.808;2023-05-07T02:15:31;12.30;99.90
9043;DHT22;4556;49.150;8.808;2023-05-07T02:17:59;12.30;99.90
9043;DHT22;4556;49.150;8.808;2023-05-07T02:20:27;12.20;99.90
9043;DHT22;4556;49.150;8.808;2023-05-07T02:22:54;12.30;99.90
9043;DHT22;4556;49.150;8.808;2023-05-07T02:25:22;12.20;99.90
9043;DHT22;4556;49.150;8.808;2023-05-07T02:27:49;12.90;99.90
9043;DHT22;4556;49.150;8.808;2023-05-07T02:30:18;12.30;99.90
9043;DHT22;4556;49.150;8.808;2023-05-07T02:32:53;12.20;99.90
9043;DHT22;4556;49.150;8.808;2023-05-07T02:35:26;12.20;99.90
9043;DHT22;4556;49.150;8.808;2023-05-07T02:37:53;12.20;99.90
9043;DHT22;4556;49.150;8.808;2023-05-07T02:40:22;12.10;99.90
9043;DHT22;4556;49.150;8.808;2023-05-07T02:42:49;12.30;99.90
9043;DHT22;4556;49.150;8.808;2023-05-07T02:45:16;12.30;99.90
9043;DHT22;4556;49.150;8.808;2023-05-07T02:47:50;12.10;99.90
9043;DHT22;4556;49.150;8.808;2023-05-07T02:50:17;12.20;99.90
9043;DHT22;4556;49.150;8.808;2023-05-07T02:52:46;12.20;99.90
9043;DHT22;4556;49.150;8.808;2023-05-07T02:55:29;12.20;99.90
9043;DHT22;4556;49.150;8.808;2023-05-07T02:57:58;13.20;99.90
9043;DHT22;4556;49.150;8.808;2023-05-07T03:00:37;12.00;99.90
9043;DHT22;4556;49.150;8.808;2023-05-07T03:03:04;11.80;99.90
9043;DHT22;4556;49.150;8.808;2023-05-07T03:05:31;11.70;99.90
9043;DHT22;4556;49.150;8.808;2023-05-07T03:07:58;11.60;99.90
9043;DHT22;4556;49.150;8.808;2023-05-07T03:10:25;11.70;99.90
9043;DHT22;4556;49.150;8.808;2023-05-07T03:12:57;11.70;99.90
9043;DHT22;4556;49.150;8.808;2023-05-07T03:15:28;13.00;99.90
9043;DHT22;4556;49.150;8.808;2023-05-07T03:17:58;12.90;99.90
9043;DHT22;4556;49.150;8.808;2023-05-07T03:20:34;11.60;99.90
9043;DHT22;4556;49.150;8.808;2023-05-07T03:23:22;11.60;99.90
9043;DHT22;4556;49.150;8.808;2023-05-07T03:25:53;11.40;99.90
9043;DHT22;4556;49.150;8.808;2023-05-07T03:42:04;11.60;99.90
9043;DHT22;4556;49.150;8.808;2023-05-07T04:23:16;11.50;99.90
9043;DHT22;4556;49.150;8.808;2023-05-07T04:25:52;12.80;99.90
9043;DHT22;4556;49.150;8.808;2023-05-07T04:28:34;11.60;99.90
9043;DHT22;4556;49.150;8.808;2023-05-07T04:31:02;13.90;99.90
9043;DHT22;4556;49.150;8.808;2023-05-07T04:33:29;13.30;99.90
9043;DHT22;4556;49.150;8.808;2023-05-07T04:35:57;13.00;99.90
9043;DHT22;4556;49.150;8.808;2023-05-07T14:31:54;15.60;99.90
9043;DHT22;4556;49.150;8.808;2023-05-07T14:34:21;15.40;99.90
9043;DHT22;4556;49.150;8.808;2023-05-07T14:36:48;15.30;99.90
9043;DHT22;4556;49.150;8.808;2023-05-07T14:39:15;15.30;99.90
9043;DHT22;4556;49.150;8.808;2023-05-07T14:41:42;15.20;99.90
9043;DHT22;4556;49.150;8.808;2023-05-07T14:44:09;15.60;99.90
9043;DHT22;4556;49.150;8.808;2023-05-07T14:46:36;16.50;99.90
9043;DHT22;4556;49.150;8.808;2023-05-07T14:49:07;14.70;99.90
9043;DHT22;4556;49.150;8.808;2023-05-07T14:51:42;15.20;99.90
9043;DHT22;4556;49.150;8.808;2023-05-07T14:54:11;16.30;99.90
9043;DHT22;4556;49.150;8.808;2023-05-07T14:56:39;15.90;99.90
9043;DHT22;4556;49.150;8.808;2023-05-07T14:59:06;15.30;99.90
9043;DHT22;4556;49.150;8.808;2023-05-07T15:01:34;16.20;99.90
9043;DHT22;4556;49.150;8.808;2023-05-07T15:04:02;15.40;99.90
9043;DHT22;4556;49.150;8.808;2023-05-07T16:32:41;14.20;99.90
9043;DHT22;4556;49.150;8.808;2023-05-07T16:35:09;14.10;99.90
9043;DHT22;4556;49.150;8.808;2023-05-07T16:37:39;15.30;99.90
9043;DHT22;4556;49.150;8.808;2023-05-07T16:40:09;14.10;99.90
9043;DHT22;4556;49.150;8.808;2023-05-07T16:42:51;14.10;99.90
9043;DHT22;4556;49.150;8.808;2023-05-07T16:45:22;14.30;99.90
9043;DHT22;4556;49.150;8.808;2023-05-07T16:48:02;16.00;99.90
9043;DHT22;4556;49.150;8.808;2023-05-07T16:50:42;14.70;99.90
9043;DHT22;4556;49.150;8.808;2023-05-07T16:53:11;17.70;99.90
9043;DHT22;4556;49.150;8.808;2023-05-07T16:55:38;14.80;99.90
9043;DHT22;4556;49.150;8.808;2023-05-07T16:58:12;14.30;99.90
9043;DHT22;4556;49.150;8.808;2023-05-07T17:00:40;14.20;99.90
9043;DHT22;4556;49.150;8.808;2023-05-07T17:03:08;14.20;99.90
9043;DHT22;4556;49.150;8.808;2023-05-07T17:05:35;17.30;99.90
9043;DHT22;4556;49.150;8.808;2023-05-07T17:08:10;14.30;99.90
9043;DHT22;4556;49.150;8.808;2023-05-07T17:10:51;13.70;99.90
9043;DHT22;4556;49.150;8.808;2023-05-07T17:13:18;14.30;99.90
9043;DHT22;4556;49.150;8.808;2023-05-07T17:15:44;14.30;99.90
9043;DHT22;4556;49.150;8.808;2023-05-07T17:18:13;14.10;99.90
9043;DHT22;4556;49.150;8.808;2023-05-07T17:20:45;15.50;99.90
9043;DHT22;4556;49.150;8.808;2023-05-07T17:55:07;14.30;99.90
9043;DHT22;4556;49.150;8.808;2023-05-07T18:03:09;14.20;99.90
9043;DHT22;4556;49.150;8.808;2023-05-07T20:32:04;14.50;99.90
9043;DHT22;4556;49.150;8.808;2023-05-07T21:58:24;14.00;99.90
